createdAt,value
2022-10-07T00:01:58.507Z,99644.72
2022-10-07T00:04:25.122Z,99648.34
2022-10-07T00:06:51.639Z,99645.53
2022-10-07T00:09:18.184Z,99641.91
2022-10-07T00:11:44.716Z,99637.09
2022-10-07T00:14:11.653Z,99645.03
2022-10-07T00:16:40.863Z,99633.56
2022-10-07T00:19:12.083Z,99640.28
2022-10-07T00:21:39.901Z,99642.84
2022-10-07T00:24:07.664Z,99639.91
2022-10-07T00:26:36.043Z,99645.94
2022-10-07T00:29:04.138Z,99643.25
2022-10-07T00:31:33.826Z,99640.44
2022-10-07T00:34:00.629Z,99644.00
2022-10-07T00:36:32.776Z,99645.88
2022-10-07T00:39:01.718Z,99642.34
2022-10-07T00:41:37.560Z,99632.22
2022-10-07T00:44:31.841Z,99635.25
2022-10-07T00:47:00.652Z,99636.16
2022-10-07T00:49:30.148Z,99628.53
2022-10-07T00:51:57.996Z,99630.09
2022-10-07T00:54:24.859Z,99625.16
2022-10-07T00:56:52.013Z,99617.56
2022-10-07T00:59:20.979Z,99623.91
2022-10-07T01:01:47.442Z,99618.56
2022-10-07T01:04:15.171Z,99620.25
2022-10-07T01:06:41.851Z,99616.34
2022-10-07T01:09:11.238Z,99614.13
2022-10-07T01:11:56.577Z,99601.56
2022-10-07T01:14:47.854Z,99601.00
2022-10-07T01:17:31.645Z,99593.94
2022-10-07T01:20:16.481Z,99585.03
2022-10-07T01:22:49.963Z,99587.16
2022-10-07T01:25:22.301Z,99588.78
2022-10-07T01:27:56.341Z,99594.94
2022-10-07T01:30:22.821Z,99595.78
2022-10-07T01:32:56.680Z,99587.91
2022-10-07T01:35:26.900Z,99588.84
2022-10-07T01:37:57.339Z,99586.50
2022-10-07T01:40:28.262Z,99577.84
2022-10-07T01:42:55.582Z,99576.91
2022-10-07T01:45:24.990Z,99581.72
2022-10-07T01:47:52.036Z,99575.06
2022-10-07T01:50:22.235Z,99569.44
2022-10-07T01:52:51.367Z,99571.66
2022-10-07T01:55:41.972Z,99557.22
2022-10-07T01:58:45.974Z,99566.34
2022-10-07T02:01:17.427Z,99562.63
2022-10-07T02:04:08.646Z,99563.31
2022-10-07T02:06:46.844Z,99549.81
2022-10-07T02:09:35.850Z,99547.34
2022-10-07T02:12:15.580Z,99548.88
2022-10-07T02:15:34.668Z,99544.31
2022-10-07T02:18:06.470Z,99547.59
2022-10-07T02:20:37.024Z,99540.19
2022-10-07T02:23:07.760Z,99538.44
2022-10-07T02:25:40.136Z,99541.72
2022-10-07T02:28:09.490Z,99532.78
2022-10-07T02:30:37.648Z,99534.41
2022-10-07T02:33:07.760Z,99533.38
2022-10-07T02:35:45.194Z,99533.59
2022-10-07T02:38:14.877Z,99524.88
2022-10-07T02:40:54.640Z,99523.13
2022-10-07T02:43:31.318Z,99518.59
2022-10-07T02:46:04.270Z,99515.38
2022-10-07T02:48:34.458Z,99511.84
2022-10-07T02:51:05.008Z,99515.38
2022-10-07T02:53:33.261Z,99511.94
2022-10-07T02:56:02.259Z,99516.66
2022-10-07T02:58:29.319Z,99508.44
2022-10-07T03:00:59.465Z,99510.78
2022-10-07T03:03:26.998Z,99511.31
2022-10-07T03:05:53.753Z,99504.44
2022-10-07T03:08:21.878Z,99508.31
2022-10-07T03:10:48.766Z,99507.22
2022-10-07T03:13:15.679Z,99510.19
2022-10-07T03:15:43.134Z,99494.75
2022-10-07T03:18:26.277Z,99498.81
2022-10-07T03:20:55.286Z,99497.72
2022-10-07T03:23:23.518Z,99499.28
2022-10-07T03:25:55.334Z,99502.22
2022-10-07T03:28:23.820Z,99498.13
2022-10-07T03:30:51.500Z,99491.56
2022-10-07T03:33:19.901Z,99498.03
2022-10-07T03:35:46.332Z,99495.34
2022-10-07T03:38:13.002Z,99490.91
2022-10-07T03:40:39.976Z,99498.41
2022-10-07T03:43:07.574Z,99494.25
2022-10-07T03:45:37.448Z,99487.78
2022-10-07T03:48:04.157Z,99487.78
2022-10-07T03:50:30.556Z,99485.19
2022-10-07T03:52:56.977Z,99487.56
2022-10-07T03:55:23.407Z,99492.28
2022-10-07T03:57:59.665Z,99480.91
2022-10-07T04:00:27.382Z,99478.31
2022-10-07T04:02:54.166Z,99475.69
2022-10-07T04:05:21.788Z,99471.19
2022-10-07T04:07:50.097Z,99467.34
2022-10-07T04:10:18.608Z,99477.34
2022-10-07T04:12:45.978Z,99467.34
2022-10-07T04:15:13.667Z,99466.03
2022-10-07T04:17:41.234Z,99464.53
2022-10-07T04:20:08.536Z,99462.66
2022-10-07T04:22:35.174Z,99454.78
2022-10-07T04:25:19.936Z,99462.09
2022-10-07T04:27:54.091Z,99457.00
2022-10-07T04:30:21.769Z,99463.09
2022-10-07T04:32:50.553Z,99458.78
2022-10-07T04:35:18.957Z,99458.16
2022-10-07T04:37:48.355Z,99454.06
2022-10-07T04:40:15.420Z,99455.56
2022-10-07T04:43:00.443Z,99444.44
2022-10-07T04:45:27.129Z,99452.28
2022-10-07T04:47:53.576Z,99442.47
2022-10-07T04:50:19.980Z,99445.22
2022-10-07T04:52:52.591Z,99430.81
2022-10-07T04:55:19.287Z,99443.16
2022-10-07T04:57:45.993Z,99436.22
2022-10-07T05:00:13.287Z,99431.56
2022-10-07T05:02:40.019Z,99434.38
2022-10-07T05:05:06.986Z,99429.44
2022-10-07T05:07:33.459Z,99425.63
2022-10-07T05:09:59.929Z,99422.44
2022-10-07T05:12:26.647Z,99423.41
2022-10-07T05:14:53.101Z,99425.63
2022-10-07T05:17:20.364Z,99416.75
2022-10-07T05:19:47.026Z,99410.19
2022-10-07T05:22:13.570Z,99411.50
2022-10-07T05:24:40.010Z,99400.94
2022-10-07T05:27:06.465Z,99406.91
2022-10-07T05:29:32.881Z,99414.31
2022-10-07T05:32:03.892Z,99406.91
2022-10-07T05:34:31.590Z,99415.00
2022-10-07T05:36:59.190Z,99407.72
2022-10-07T05:39:25.730Z,99419.06
2022-10-07T05:41:52.253Z,99412.13
2022-10-07T05:44:18.723Z,99409.63
2022-10-07T05:46:45.169Z,99416.56
2022-10-07T05:49:12.169Z,99406.25
2022-10-07T05:51:38.608Z,99415.22
2022-10-07T05:54:05.157Z,99413.56
2022-10-07T05:56:32.308Z,99414.53
2022-10-07T05:58:58.826Z,99410.09
2022-10-07T06:01:27.679Z,99416.69
2022-10-07T06:03:57.221Z,99410.09
2022-10-07T06:06:25.053Z,99415.53
2022-10-07T06:08:52.783Z,99411.22
2022-10-07T06:11:38.409Z,99401.28
2022-10-07T06:14:05.282Z,99400.06
2022-10-07T06:16:31.843Z,99407.25
2022-10-07T06:18:59.789Z,99409.63
2022-10-07T06:21:28.025Z,99403.56
2022-10-07T06:23:56.517Z,99408.97
2022-10-07T06:26:23.577Z,99406.47
2022-10-07T06:28:50.183Z,99403.25
2022-10-07T06:31:25.140Z,99408.25
2022-10-07T06:33:52.299Z,99404.41
2022-10-07T06:36:19.325Z,99401.78
2022-10-07T06:38:47.287Z,99401.00
2022-10-07T06:41:14.202Z,99397.78
2022-10-07T06:43:40.960Z,99398.75
2022-10-07T06:46:10.861Z,99404.59
2022-10-07T06:48:40.995Z,99409.78
2022-10-07T06:51:12.579Z,99410.28
2022-10-07T06:53:39.018Z,99411.38
2022-10-07T06:56:06.103Z,99410.47
2022-10-07T06:58:33.172Z,99397.38
2022-10-07T07:01:00.675Z,99397.63
2022-10-07T07:03:28.020Z,99402.25
2022-10-07T07:05:55.226Z,99401.78
2022-10-07T07:08:23.457Z,99396.16
2022-10-07T07:10:50.024Z,99400.38
2022-10-07T07:13:16.577Z,99401.41
2022-10-07T07:15:43.050Z,99399.72
2022-10-07T07:18:11.423Z,99391.69
2022-10-07T07:20:38.857Z,99396.94
2022-10-07T07:23:07.509Z,99394.50
2022-10-07T07:25:39.038Z,99394.50
2022-10-07T07:28:07.379Z,99401.03
2022-10-07T07:30:34.905Z,99395.88
2022-10-07T07:33:01.661Z,99400.50
2022-10-07T07:35:31.027Z,99398.75
2022-10-07T07:37:57.572Z,99391.31
2022-10-07T07:40:24.066Z,99393.50
2022-10-07T07:42:50.520Z,99383.28
2022-10-07T07:45:18.059Z,99380.34
2022-10-07T07:47:47.477Z,99382.47
2022-10-07T07:50:14.243Z,99384.41
2022-10-07T07:52:40.678Z,99384.06
2022-10-07T07:55:07.503Z,99391.47
2022-10-07T07:57:33.959Z,99381.84
2022-10-07T08:00:00.560Z,99384.47
2022-10-07T08:02:27.142Z,99380.72
2022-10-07T08:04:53.967Z,99370.38
2022-10-07T08:07:20.460Z,99368.56
2022-10-07T08:09:46.962Z,99372.91
2022-10-07T08:12:14.717Z,99369.03
2022-10-07T08:14:41.453Z,99376.00
2022-10-07T08:17:07.893Z,99371.91
2022-10-07T08:19:34.360Z,99378.91
2022-10-07T08:22:01.098Z,99377.47
2022-10-07T08:24:27.950Z,99373.63
2022-10-07T08:26:54.569Z,99370.53
2022-10-07T08:29:21.736Z,99366.81
2022-10-07T08:31:49.291Z,99363.84
2022-10-07T08:34:15.715Z,99357.25
2022-10-07T08:36:47.232Z,99360.16
2022-10-07T08:39:15.165Z,99350.88
2022-10-07T08:42:03.498Z,99349.00
2022-10-07T08:44:33.055Z,99352.22
2022-10-07T08:47:18.030Z,99342.47
2022-10-07T08:49:56.624Z,99345.25
2022-10-07T08:52:32.846Z,99344.38
2022-10-07T08:55:01.579Z,99342.38
2022-10-07T08:58:04.023Z,99331.09
2022-10-07T09:00:40.857Z,99335.66
2022-10-07T09:03:25.248Z,99327.84
2022-10-07T09:05:53.347Z,99330.47
2022-10-07T09:08:29.854Z,99329.44
2022-10-07T09:11:15.751Z,99328.81
2022-10-07T09:13:52.593Z,99326.56
2022-10-07T09:16:27.184Z,99329.56
2022-10-07T09:18:57.690Z,99317.56
2022-10-07T09:21:32.915Z,99317.81
2022-10-07T09:24:22.880Z,99307.56
2022-10-07T09:26:49.509Z,99302.59
2022-10-07T09:29:20.660Z,99313.41
2022-10-07T09:31:49.308Z,99307.22
2022-10-07T09:34:22.459Z,99308.97
2022-10-07T09:37:12.266Z,99292.97
2022-10-07T09:39:39.723Z,99297.13
2022-10-07T09:42:31.586Z,99304.22
2022-10-07T09:45:01.522Z,99298.13
2022-10-07T09:47:36.641Z,99295.16
2022-10-07T09:50:03.971Z,99291.19
2022-10-07T09:52:32.558Z,99290.88
2022-10-07T09:55:31.611Z,99283.22
2022-10-07T09:58:03.099Z,99282.91
2022-10-07T10:00:30.621Z,99282.47
2022-10-07T10:03:05.510Z,99278.66
2022-10-07T10:05:35.587Z,99281.13
2022-10-07T10:08:04.419Z,99284.94
2022-10-07T10:10:35.609Z,99275.00
2022-10-07T10:13:05.477Z,99280.22
2022-10-07T10:15:44.865Z,99283.19
2022-10-07T10:18:41.577Z,99268.09
2022-10-07T10:21:14.431Z,99263.25
2022-10-07T10:23:46.803Z,99266.03
2022-10-07T10:26:33.718Z,99265.69
2022-10-07T10:29:31.641Z,99257.59
2022-10-07T10:32:01.035Z,99252.94
2022-10-07T10:34:52.586Z,99246.34
2022-10-07T10:37:30.735Z,99245.28
2022-10-07T10:40:07.971Z,99245.00
2022-10-07T10:42:45.544Z,99243.97
2022-10-07T10:45:19.949Z,99237.34
2022-10-07T10:48:00.776Z,99240.06
2022-10-07T10:51:02.920Z,99229.25
2022-10-07T10:53:34.412Z,99220.22
2022-10-07T10:56:00.828Z,99217.84
2022-10-07T10:58:44.699Z,99224.03
2022-10-07T11:01:28.780Z,99224.25
2022-10-07T11:04:09.749Z,99207.81
2022-10-07T11:06:38.990Z,99208.59
2022-10-07T11:09:10.272Z,99215.47
2022-10-07T11:11:36.796Z,99209.03
2022-10-07T11:14:14.299Z,99204.84
2022-10-07T11:16:52.546Z,99209.34
2022-10-07T11:19:24.574Z,99202.75
2022-10-07T11:21:53.492Z,99191.94
2022-10-07T11:24:26.612Z,99191.88
2022-10-07T11:27:06.592Z,99183.38
2022-10-07T11:30:03.392Z,99174.63
2022-10-07T11:32:58.917Z,99178.31
2022-10-07T11:35:35.927Z,99175.34
2022-10-07T11:38:12.983Z,99165.16
2022-10-07T11:40:53.254Z,99169.59
2022-10-07T11:43:29.130Z,99157.06
2022-10-07T11:46:01.000Z,99155.13
2022-10-07T11:48:37.584Z,99158.16
2022-10-07T11:51:07.188Z,99146.25
2022-10-07T11:53:38.458Z,99137.69
2022-10-07T11:56:18.645Z,99140.00
2022-10-07T11:58:45.591Z,99137.25
2022-10-07T12:01:28.799Z,99135.72
2022-10-07T12:04:35.379Z,99116.28
2022-10-07T12:07:36.234Z,99121.50
2022-10-07T12:10:03.396Z,99114.97
2022-10-07T12:12:42.518Z,99104.53
2022-10-07T12:15:42.449Z,99108.63
2022-10-07T12:18:10.451Z,99104.47
2022-10-07T12:20:46.440Z,99100.53
2022-10-07T12:23:18.871Z,99095.00
2022-10-07T12:25:47.992Z,99093.22
2022-10-07T12:28:25.410Z,99092.72
2022-10-07T12:30:57.213Z,99082.88
2022-10-07T12:33:46.469Z,99080.38
2022-10-07T12:36:18.969Z,99074.28
2022-10-07T12:39:07.965Z,99068.56
2022-10-07T12:41:39.714Z,99061.09
2022-10-07T12:44:31.590Z,99056.75
2022-10-07T12:47:13.776Z,99055.31
2022-10-07T12:49:51.840Z,99062.47
2022-10-07T12:52:27.313Z,99055.50
2022-10-07T12:55:07.487Z,99051.06
2022-10-07T12:57:36.763Z,99053.81
2022-10-07T13:00:08.452Z,99044.25
2022-10-07T13:02:53.671Z,99033.75
2022-10-07T13:05:50.878Z,99033.66
2022-10-07T13:08:23.267Z,99042.38
2022-10-07T13:10:56.162Z,99033.66
2022-10-07T13:13:41.441Z,99027.69
2022-10-07T13:16:19.610Z,99015.94
2022-10-07T13:18:53.606Z,99011.78
2022-10-07T13:21:27.309Z,99011.56
2022-10-07T13:23:55.943Z,99012.38
2022-10-07T13:26:25.024Z,99003.94
2022-10-07T13:28:56.803Z,99007.94
2022-10-07T13:31:26.250Z,99004.13
2022-10-07T13:33:55.813Z,99003.91
2022-10-07T13:36:22.189Z,98996.03
2022-10-07T13:38:54.621Z,98992.91
2022-10-07T13:41:27.381Z,98993.97
2022-10-07T13:44:02.194Z,98990.97
2022-10-07T13:46:31.330Z,98992.81
2022-10-07T13:48:59.252Z,98986.25
2022-10-07T13:51:36.929Z,98977.53
2022-10-07T13:54:06.254Z,98972.94
2022-10-07T13:56:42.694Z,98978.53
2022-10-07T13:59:15.946Z,98967.63
2022-10-07T14:01:42.610Z,98975.97
2022-10-07T14:04:14.906Z,98964.31
2022-10-07T14:07:09.014Z,98963.09
2022-10-07T14:09:47.688Z,98954.03
2022-10-07T14:12:18.545Z,98949.00
2022-10-07T14:14:52.164Z,98957.25
2022-10-07T14:17:38.913Z,98951.13
2022-10-07T14:20:15.799Z,98953.13
2022-10-07T14:22:46.852Z,98951.59
2022-10-07T14:25:22.960Z,98947.97
2022-10-07T14:27:49.331Z,98941.78
2022-10-07T14:30:25.988Z,98938.03
2022-10-07T14:33:32.633Z,98943.00
2022-10-07T14:36:28.143Z,98940.78
2022-10-07T14:39:01.836Z,98934.94
2022-10-07T14:41:29.700Z,98928.44
2022-10-07T14:44:00.235Z,98923.69
2022-10-07T14:46:29.070Z,98931.09
2022-10-07T14:48:55.743Z,98933.06
2022-10-07T14:51:27.629Z,98922.56
2022-10-07T14:53:58.437Z,98921.50
2022-10-07T14:56:31.283Z,98916.16
2022-10-07T14:58:58.025Z,98909.38
2022-10-07T15:01:26.662Z,98907.91
2022-10-07T15:03:53.310Z,98902.88
2022-10-07T15:06:20.547Z,98904.16
2022-10-07T15:08:48.650Z,98895.28
2022-10-07T15:11:20.872Z,98888.81
2022-10-07T15:13:49.324Z,98896.09
2022-10-07T15:16:19.596Z,98899.16
2022-10-07T15:18:51.870Z,98894.47
2022-10-07T15:21:19.842Z,98894.47
2022-10-07T15:23:53.525Z,98881.44
2022-10-07T15:26:23.599Z,98886.69
2022-10-07T15:28:56.138Z,98891.47
2022-10-07T15:31:27.629Z,98892.19
2022-10-07T15:33:57.193Z,98888.78
2022-10-07T15:36:29.067Z,98882.63
2022-10-07T15:38:59.023Z,98878.94
2022-10-07T15:41:36.821Z,98868.31
2022-10-07T15:44:06.544Z,98866.91
2022-10-07T15:46:34.010Z,98871.78
2022-10-07T15:49:00.628Z,98869.88
2022-10-07T15:51:27.584Z,98863.13
2022-10-07T15:53:54.118Z,98873.41
2022-10-07T15:56:20.946Z,98870.94
2022-10-07T15:58:47.846Z,98872.31
2022-10-07T16:01:15.332Z,98868.00
2022-10-07T16:03:46.097Z,98854.94
2022-10-07T16:06:17.473Z,98857.88
2022-10-07T16:08:44.563Z,98866.34
2022-10-07T16:11:12.428Z,98862.31
2022-10-07T16:13:44.658Z,98856.38
2022-10-07T16:16:31.456Z,98861.91
2022-10-07T16:18:59.357Z,98862.00
2022-10-07T16:21:37.261Z,98862.19
2022-10-07T16:24:18.912Z,98861.75
2022-10-07T16:26:47.212Z,98858.44
2022-10-07T16:29:34.563Z,98859.44
2022-10-07T16:32:01.427Z,98871.06
2022-10-07T16:34:28.693Z,98867.78
2022-10-07T16:36:56.860Z,98866.72
2022-10-07T16:39:24.064Z,98863.81
2022-10-07T16:41:52.242Z,98863.53
2022-10-07T16:44:19.556Z,98862.56
2022-10-07T16:46:46.526Z,98866.56
2022-10-07T16:49:15.835Z,98860.22
2022-10-07T16:51:43.974Z,98871.41
2022-10-07T16:54:14.459Z,98871.91
2022-10-07T16:56:46.156Z,98874.56
2022-10-07T16:59:17.460Z,98879.81
2022-10-07T17:01:49.173Z,98873.94
2022-10-07T17:04:16.138Z,98877.81
2022-10-07T17:06:43.789Z,98868.88
2022-10-07T17:09:10.379Z,98880.78
2022-10-07T17:11:37.271Z,98883.63
2022-10-07T17:14:19.116Z,98881.56
2022-10-07T17:16:50.865Z,98874.91
2022-10-07T17:19:22.707Z,98873.56
2022-10-07T17:21:50.891Z,98876.88
2022-10-07T17:24:19.078Z,98884.56
2022-10-07T17:26:46.393Z,98884.09
2022-10-07T17:29:15.277Z,98893.75
2022-10-07T17:31:43.475Z,98886.66
2022-10-07T17:34:11.348Z,98888.69
2022-10-07T17:36:38.527Z,98891.34
2022-10-07T17:39:05.655Z,98896.28
2022-10-07T17:41:34.518Z,98893.97
2022-10-07T17:44:03.200Z,98893.09
2022-10-07T17:46:33.157Z,98893.53
2022-10-07T17:49:02.151Z,98889.72
2022-10-07T17:51:31.191Z,98895.44
2022-10-07T17:54:00.265Z,98884.53
2022-10-07T17:56:28.255Z,98894.78
2022-10-07T17:58:55.349Z,98898.38
2022-10-07T18:01:34.053Z,98892.56
2022-10-07T18:04:03.327Z,98886.06
2022-10-07T18:06:33.585Z,98894.63
2022-10-07T18:09:03.292Z,98896.53
2022-10-07T18:11:49.603Z,98890.03
2022-10-07T18:14:34.691Z,98888.44
2022-10-07T18:17:01.307Z,98896.22
2022-10-07T18:19:29.634Z,98903.13
2022-10-07T18:21:56.716Z,98905.19
2022-10-07T18:24:27.659Z,98896.16
2022-10-07T18:26:59.175Z,98896.38
2022-10-07T18:29:30.828Z,98893.09
2022-10-07T18:31:57.509Z,98898.00
2022-10-07T18:34:24.089Z,98907.25
2022-10-07T18:36:55.407Z,98907.22
2022-10-07T18:39:23.230Z,98901.19
2022-10-07T18:41:49.768Z,98900.97
2022-10-07T18:44:16.473Z,98907.25
2022-10-07T18:46:42.951Z,98897.97
2022-10-07T18:49:09.480Z,98892.22
2022-10-07T18:51:35.974Z,98909.69
2022-10-07T18:54:02.399Z,98904.06
2022-10-07T18:56:30.729Z,98901.09
2022-10-07T18:58:58.138Z,98901.91
2022-10-07T19:01:27.910Z,98905.91
2022-10-07T19:04:01.120Z,98906.78
2022-10-07T19:06:29.565Z,98897.25
2022-10-07T19:08:57.649Z,98898.97
2022-10-07T19:11:24.573Z,98903.22
2022-10-07T19:13:56.268Z,98919.03
2022-10-07T19:16:24.916Z,98915.22
2022-10-07T19:18:54.463Z,98923.91
2022-10-07T19:21:21.783Z,98927.22
2022-10-07T19:23:49.466Z,98932.88
2022-10-07T19:26:21.398Z,98928.81
2022-10-07T19:28:49.851Z,98927.50
2022-10-07T19:31:32.110Z,98943.81
2022-10-07T19:34:07.918Z,98939.22
2022-10-07T19:36:38.018Z,98938.41
2022-10-07T19:39:05.931Z,98941.13
2022-10-07T19:41:34.168Z,98937.81
2022-10-07T19:44:01.220Z,98933.78
2022-10-07T19:46:30.623Z,98932.28
2022-10-07T19:48:58.895Z,98933.41
2022-10-07T19:51:27.292Z,98941.28
2022-10-07T19:53:54.046Z,98941.38
2022-10-07T19:56:23.164Z,98939.13
2022-10-07T19:58:52.044Z,98944.66
2022-10-07T20:01:21.207Z,98934.81
2022-10-07T20:03:48.929Z,98938.09
2022-10-07T20:06:16.139Z,98943.53
2022-10-07T20:08:44.504Z,98949.53
2022-10-07T20:11:11.888Z,98951.19
2022-10-07T20:13:38.900Z,98949.75
2022-10-07T20:16:06.874Z,98949.72
2022-10-07T20:18:34.909Z,98947.28
2022-10-07T20:21:08.630Z,98946.00
2022-10-07T20:23:36.268Z,98947.06
2022-10-07T20:26:10.465Z,98942.78
2022-10-07T20:28:39.570Z,98946.41
2022-10-07T20:31:08.988Z,98956.78
2022-10-07T20:33:40.417Z,98955.69
2022-10-07T20:36:08.325Z,98960.59
2022-10-07T20:38:54.036Z,98955.16
2022-10-07T20:41:40.369Z,98960.59
2022-10-07T20:44:07.442Z,98966.03
2022-10-07T20:46:37.112Z,98955.97
2022-10-07T20:49:21.230Z,98961.94
2022-10-07T20:51:54.313Z,98961.41
2022-10-07T20:54:21.814Z,98956.31
2022-10-07T20:56:51.965Z,98963.97
2022-10-07T20:59:18.791Z,98965.06
2022-10-07T21:01:45.377Z,98968.31
2022-10-07T21:04:14.136Z,98960.97
2022-10-07T21:06:40.752Z,98961.22
2022-10-07T21:09:07.388Z,98960.16
2022-10-07T21:11:34.487Z,98953.59
2022-10-07T21:14:00.903Z,98960.41
2022-10-07T21:16:29.210Z,98959.06
2022-10-07T21:18:56.774Z,98956.38
2022-10-07T21:21:25.397Z,98954.72
2022-10-07T21:23:52.823Z,98961.22
2022-10-07T21:26:20.020Z,98957.94
2022-10-07T21:28:49.606Z,98954.16
2022-10-07T21:31:19.119Z,98954.75
2022-10-07T21:33:49.174Z,98952.84
2022-10-07T21:36:21.575Z,98957.97
2022-10-07T21:38:53.589Z,98951.19
2022-10-07T21:41:25.308Z,98955.00
2022-10-07T21:43:54.443Z,98953.34
2022-10-07T21:46:22.093Z,98959.59
2022-10-07T21:48:49.114Z,98955.53
2022-10-07T21:51:16.185Z,98944.66
2022-10-07T21:53:42.593Z,98945.72
2022-10-07T21:56:12.557Z,98943.84
2022-10-07T21:58:39.403Z,98947.91
2022-10-07T22:01:13.170Z,98946.53
2022-10-07T22:03:40.880Z,98941.69
2022-10-07T22:06:10.721Z,98945.50
2022-10-07T22:08:38.420Z,98944.72
2022-10-07T22:11:19.068Z,98944.41
2022-10-07T22:14:00.046Z,98946.06
2022-10-07T22:16:26.778Z,98939.00
2022-10-07T22:18:54.516Z,98930.03
2022-10-07T22:21:22.293Z,98933.88
2022-10-07T22:23:51.116Z,98936.03
2022-10-07T22:26:18.999Z,98934.69
2022-10-07T22:28:49.710Z,98932.50
2022-10-07T22:31:16.909Z,98931.16
2022-10-07T22:33:45.002Z,98930.88
2022-10-07T22:36:13.342Z,98936.03
2022-10-07T22:38:43.514Z,98942.28
2022-10-07T22:41:15.414Z,98938.22
2022-10-07T22:43:46.245Z,98931.38
2022-10-07T22:46:15.504Z,98935.47
2022-10-07T22:48:43.470Z,98938.47
2022-10-07T22:51:12.297Z,98934.16
2022-10-07T22:53:41.183Z,98931.69
2022-10-07T22:56:13.040Z,98930.88
2022-10-07T22:58:41.904Z,98929.81
2022-10-07T23:01:11.477Z,98930.88
2022-10-07T23:03:39.810Z,98924.63
2022-10-07T23:06:07.421Z,98926.56
2022-10-07T23:08:35.062Z,98934.41
2022-10-07T23:11:03.132Z,98922.47
2022-10-07T23:13:33.008Z,98916.22
2022-10-07T23:16:01.667Z,98909.16
2022-10-07T23:18:29.489Z,98913.53
2022-10-07T23:21:03.177Z,98911.09
2022-10-07T23:23:30.514Z,98905.63
2022-10-07T23:25:56.934Z,98901.00
2022-10-07T23:28:25.724Z,98900.47
2022-10-07T23:30:53.084Z,98899.38
2022-10-07T23:33:20.183Z,98903.16
2022-10-07T23:35:46.640Z,98902.63
2022-10-07T23:38:13.100Z,98898.31
2022-10-07T23:40:40.702Z,98901.81
2022-10-07T23:43:07.721Z,98895.56
2022-10-07T23:45:34.165Z,98903.13
2022-10-07T23:48:00.618Z,98905.34
2022-10-07T23:50:27.754Z,98895.03
2022-10-07T23:52:54.267Z,98891.22
2022-10-07T23:55:20.778Z,98897.72
2022-10-07T23:57:47.197Z,98892.28
